createdAt,value
2022-10-28T00:01:14.374Z,7.20
2022-10-28T00:03:45.193Z,6.65
2022-10-28T00:06:15.853Z,7.43
2022-10-28T00:08:44.116Z,7.00
2022-10-28T00:11:14.159Z,6.50
2022-10-28T00:13:43.255Z,8.15
2022-10-28T00:16:14.184Z,5.32
2022-10-28T00:18:44.170Z,6.13
2022-10-28T00:21:14.825Z,6.32
2022-10-28T00:23:43.232Z,5.82
2022-10-28T00:26:12.890Z,5.40
2022-10-28T00:28:46.006Z,5.75
2022-10-28T00:31:15.768Z,6.03
2022-10-28T00:33:45.948Z,6.25
2022-10-28T00:36:16.447Z,6.53
2022-10-28T00:38:46.066Z,5.75
2022-10-28T00:41:17.024Z,6.10
2022-10-28T00:43:46.855Z,5.00
2022-10-28T00:46:20.398Z,5.38
2022-10-28T00:48:55.440Z,5.32
2022-10-28T00:51:25.469Z,5.13
2022-10-28T00:53:55.983Z,5.40
2022-10-28T00:58:57.735Z,6.10
2022-10-28T01:01:26.021Z,6.03
2022-10-28T01:03:57.626Z,5.95
2022-10-28T01:06:27.667Z,5.93
2022-10-28T01:08:59.028Z,6.65
2022-10-28T01:11:40.323Z,8.20
2022-10-28T01:14:30.968Z,8.20
2022-10-28T01:17:28.424Z,6.38
2022-10-28T01:20:42.512Z,7.20
2022-10-28T01:23:21.584Z,7.70
2022-10-28T01:26:22.789Z,6.05
2022-10-28T01:29:18.709Z,7.28
2022-10-28T01:31:52.104Z,8.15
2022-10-28T01:34:30.364Z,6.80
2022-10-28T01:37:01.987Z,7.78
2022-10-28T01:39:35.689Z,7.28
2022-10-28T01:42:15.051Z,5.85
2022-10-28T01:44:52.542Z,7.18
2022-10-28T01:47:27.184Z,7.60
2022-10-28T01:50:00.059Z,7.65
2022-10-28T01:52:31.814Z,6.68
2022-10-28T01:55:04.110Z,6.82
2022-10-28T01:57:34.525Z,6.47
2022-10-28T02:00:04.054Z,7.28
2022-10-28T02:02:42.759Z,7.20
2022-10-28T02:05:37.667Z,7.28
2022-10-28T02:08:22.516Z,6.55
2022-10-28T02:11:02.957Z,5.93
2022-10-28T02:13:40.851Z,6.72
2022-10-28T02:16:19.253Z,6.30
2022-10-28T02:18:58.101Z,6.18
2022-10-28T02:21:37.462Z,7.20
2022-10-28T02:24:15.011Z,5.45
2022-10-28T02:26:47.921Z,6.75
2022-10-28T02:29:21.542Z,5.82
2022-10-28T02:31:54.579Z,5.88
2022-10-28T02:34:29.627Z,6.15
2022-10-28T02:37:01.337Z,5.05
2022-10-28T02:39:37.761Z,6.78
2022-10-28T02:42:10.784Z,5.85
2022-10-28T02:44:44.751Z,6.00
2022-10-28T02:47:16.496Z,5.38
2022-10-28T02:49:50.244Z,6.10
2022-10-28T02:52:20.930Z,5.90
2022-10-28T02:54:54.104Z,6.22
2022-10-28T02:57:25.719Z,6.88
2022-10-28T02:59:55.049Z,7.68
2022-10-28T03:02:23.540Z,6.07
2022-10-28T03:04:53.054Z,5.78
2022-10-28T03:07:21.267Z,7.22
2022-10-28T03:09:49.394Z,6.80
2022-10-28T03:12:17.571Z,6.47
2022-10-28T03:14:45.597Z,6.90
2022-10-28T03:17:13.606Z,5.78
2022-10-28T03:19:41.579Z,5.80
2022-10-28T03:22:10.901Z,6.43
2022-10-28T03:24:38.997Z,6.07
2022-10-28T03:27:07.753Z,6.90
2022-10-28T03:29:35.756Z,6.55
2022-10-28T03:32:04.029Z,6.47
2022-10-28T03:34:32.009Z,7.25
2022-10-28T03:36:59.986Z,6.82
2022-10-28T03:39:29.355Z,6.13
2022-10-28T03:41:57.404Z,6.65
2022-10-28T03:44:25.417Z,6.43
2022-10-28T03:46:53.534Z,6.80
2022-10-28T03:49:21.503Z,6.20
2022-10-28T03:51:49.930Z,6.25
2022-10-28T03:54:18.257Z,6.05
2022-10-28T03:56:47.583Z,6.45
2022-10-28T03:59:19.195Z,6.95
2022-10-28T04:01:48.501Z,5.78
2022-10-28T04:04:16.608Z,6.75
2022-10-28T04:06:44.664Z,6.05
2022-10-28T04:09:12.733Z,5.97
2022-10-28T04:11:40.799Z,6.38
2022-10-28T04:14:10.115Z,7.05
2022-10-28T04:16:38.091Z,5.30
2022-10-28T04:19:06.174Z,5.07
2022-10-28T04:21:34.786Z,4.95
2022-10-28T04:24:02.862Z,5.25
2022-10-28T04:26:31.745Z,5.32
2022-10-28T04:28:59.703Z,5.60
2022-10-28T04:31:29.043Z,6.32
2022-10-28T04:33:57.031Z,5.85
2022-10-28T04:36:25.091Z,6.25
2022-10-28T04:38:53.057Z,5.47
2022-10-28T04:41:21.223Z,5.03
2022-10-28T04:43:49.228Z,4.55
2022-10-28T04:46:17.305Z,5.53
2022-10-28T04:48:48.037Z,4.18
2022-10-28T04:51:16.127Z,5.50
2022-10-28T04:53:44.121Z,5.68
2022-10-28T04:56:12.145Z,5.35
2022-10-28T04:58:40.182Z,4.63
2022-10-28T05:01:09.250Z,6.07
2022-10-28T05:03:37.755Z,5.28
2022-10-28T05:06:07.480Z,4.75
2022-10-28T05:08:35.454Z,5.47
2022-10-28T05:11:03.436Z,5.75
2022-10-28T05:13:31.383Z,5.75
2022-10-28T05:15:59.435Z,6.28
2022-10-28T05:18:27.483Z,6.25
2022-10-28T05:20:55.679Z,6.00
2022-10-28T05:23:27.271Z,5.60
2022-10-28T05:25:57.995Z,5.85
2022-10-28T05:28:26.080Z,6.30
2022-10-28T05:30:54.063Z,6.22
2022-10-28T05:33:22.142Z,6.18
2022-10-28T05:35:50.230Z,6.55
2022-10-28T05:38:18.408Z,6.35
2022-10-28T05:40:47.784Z,8.30
2022-10-28T05:43:15.864Z,7.03
2022-10-28T05:45:43.878Z,6.65
2022-10-28T05:48:11.876Z,6.03
2022-10-28T05:50:39.857Z,6.18
2022-10-28T05:53:07.828Z,8.20
2022-10-28T05:55:35.827Z,6.72
2022-10-28T05:58:05.208Z,6.32
2022-10-28T06:00:33.439Z,7.15
2022-10-28T06:03:06.809Z,7.28
2022-10-28T06:05:34.854Z,6.43
2022-10-28T06:08:05.577Z,7.38
2022-10-28T06:10:34.299Z,6.15
2022-10-28T06:13:00.879Z,6.50
2022-10-28T06:15:30.261Z,6.70
2022-10-28T06:17:58.312Z,7.22
2022-10-28T06:20:26.505Z,6.80
2022-10-28T06:22:56.285Z,6.57
2022-10-28T06:25:25.846Z,6.55
2022-10-28T06:27:55.069Z,7.20
2022-10-28T06:30:24.037Z,5.80
2022-10-28T06:32:56.124Z,7.40
2022-10-28T06:35:24.152Z,7.07
2022-10-28T06:37:54.449Z,7.22
2022-10-28T06:40:23.413Z,7.35
2022-10-28T06:42:57.372Z,7.43
2022-10-28T06:45:25.969Z,7.35
2022-10-28T06:48:01.441Z,6.53
2022-10-28T06:50:30.988Z,8.55
2022-10-28T06:52:59.434Z,6.85
2022-10-28T06:55:28.357Z,8.40
2022-10-28T06:58:00.288Z,8.07
2022-10-28T07:03:04.313Z,10.23
2022-10-28T07:05:32.387Z,9.15
2022-10-28T07:08:00.361Z,7.57
2022-10-28T07:10:28.402Z,7.75
2022-10-28T07:12:56.899Z,7.57
2022-10-28T07:15:25.176Z,8.27
2022-10-28T07:17:54.557Z,7.90
2022-10-28T07:20:25.346Z,7.80
2022-10-28T07:22:57.265Z,7.72
2022-10-28T07:25:25.513Z,7.72
2022-10-28T07:27:53.855Z,8.93
2022-10-28T07:30:21.996Z,8.65
2022-10-28T07:32:49.953Z,7.55
2022-10-28T07:35:18.093Z,8.05
2022-10-28T07:37:47.514Z,8.27
2022-10-28T07:40:15.679Z,8.85
2022-10-28T07:42:43.685Z,6.80
2022-10-28T07:45:11.774Z,7.80
2022-10-28T07:47:39.984Z,10.25
2022-10-28T07:50:08.930Z,7.75
2022-10-28T07:52:37.718Z,8.82
2022-10-28T07:55:08.595Z,8.00
2022-10-28T07:57:36.768Z,8.00
2022-10-28T08:00:06.145Z,7.82
2022-10-28T08:02:40.088Z,7.85
2022-10-28T08:05:08.678Z,8.07
2022-10-28T08:07:38.677Z,7.00
2022-10-28T08:10:09.579Z,7.40
2022-10-28T08:12:37.563Z,7.43
2022-10-28T08:15:06.180Z,8.52
2022-10-28T08:17:34.142Z,8.07
2022-10-28T08:20:02.135Z,8.63
2022-10-28T08:22:30.259Z,7.38
2022-10-28T08:24:58.263Z,8.70
2022-10-28T08:27:27.569Z,7.72
2022-10-28T08:29:55.530Z,8.40
2022-10-28T08:32:23.509Z,7.75
2022-10-28T08:34:51.483Z,8.93
2022-10-28T08:37:19.790Z,7.80
2022-10-28T08:39:47.846Z,7.47
2022-10-28T08:42:45.499Z,7.60
2022-10-28T08:45:21.912Z,8.48
2022-10-28T08:47:58.895Z,6.55
2022-10-28T08:50:31.701Z,7.28
2022-10-28T08:53:04.486Z,8.23
2022-10-28T08:55:36.116Z,7.80
2022-10-28T08:58:10.107Z,6.57
2022-10-28T09:00:39.474Z,6.57
2022-10-28T09:03:20.425Z,6.20
2022-10-28T09:05:50.995Z,7.78
2022-10-28T09:08:23.647Z,6.93
2022-10-28T09:11:07.805Z,5.75
2022-10-28T09:13:48.516Z,5.93
2022-10-28T09:16:24.592Z,6.95
2022-10-28T09:18:54.836Z,7.32
2022-10-28T09:21:31.017Z,7.05
2022-10-28T09:24:01.068Z,6.90
2022-10-28T09:26:46.994Z,6.10
2022-10-28T09:29:30.973Z,5.45
2022-10-28T09:32:18.133Z,5.22
2022-10-28T09:34:49.583Z,6.35
2022-10-28T09:37:23.022Z,6.40
2022-10-28T09:39:54.334Z,6.28
2022-10-28T09:42:26.561Z,5.30
2022-10-28T09:44:59.311Z,4.35
2022-10-28T09:47:32.961Z,5.35
2022-10-28T09:50:05.169Z,4.40
2022-10-28T09:52:40.233Z,5.18
2022-10-28T09:55:17.322Z,4.22
2022-10-28T09:57:45.325Z,4.53
2022-10-28T10:00:17.150Z,5.00
2022-10-28T10:02:46.081Z,3.88
2022-10-28T10:05:17.386Z,5.13
2022-10-28T10:07:52.204Z,4.72
2022-10-28T10:10:25.992Z,4.93
2022-10-28T10:12:58.546Z,4.22
2022-10-28T10:15:33.023Z,4.72
2022-10-28T10:18:03.119Z,5.38
2022-10-28T10:20:48.313Z,4.15
2022-10-28T10:23:25.116Z,4.72
2022-10-28T10:26:00.946Z,4.22
2022-10-28T10:28:29.817Z,4.13
2022-10-28T10:31:01.833Z,4.60
2022-10-28T10:33:32.699Z,5.10
2022-10-28T10:36:04.471Z,4.70
2022-10-28T10:38:33.004Z,4.55
2022-10-28T10:41:01.023Z,4.65
2022-10-28T10:43:33.200Z,4.90
2022-10-28T10:46:05.376Z,4.15
2022-10-28T10:48:36.274Z,4.22
2022-10-28T10:51:09.639Z,5.25
2022-10-28T10:53:40.674Z,4.63
2022-10-28T10:56:13.037Z,4.70
2022-10-28T10:58:48.110Z,4.47
2022-10-28T11:01:22.429Z,4.18
2022-10-28T11:03:54.021Z,4.38
2022-10-28T11:06:25.037Z,4.43
2022-10-28T11:08:58.583Z,3.88
2022-10-28T11:11:34.223Z,4.30
2022-10-28T11:14:08.451Z,4.07
2022-10-28T11:16:50.315Z,4.85
2022-10-28T11:19:22.386Z,4.82
2022-10-28T11:22:02.743Z,3.53
2022-10-28T11:24:46.284Z,4.15
2022-10-28T11:27:27.177Z,4.00
2022-10-28T11:29:56.486Z,3.65
2022-10-28T11:32:54.559Z,3.88
2022-10-28T11:35:41.255Z,4.63
2022-10-28T11:38:22.015Z,4.15
2022-10-28T11:41:08.188Z,3.83
2022-10-28T11:43:54.364Z,4.57
2022-10-28T11:46:38.029Z,4.50
2022-10-28T11:49:36.915Z,4.15
2022-10-28T11:52:17.639Z,4.45
2022-10-28T11:54:55.559Z,3.78
2022-10-28T11:57:37.459Z,4.55
2022-10-28T12:00:18.547Z,3.72
2022-10-28T12:03:02.243Z,5.05
2022-10-28T12:05:39.527Z,4.53
2022-10-28T12:08:31.682Z,4.93
2022-10-28T12:11:12.853Z,4.40
2022-10-28T12:13:48.314Z,4.22
2022-10-28T12:16:22.920Z,4.10
2022-10-28T12:18:57.592Z,4.57
2022-10-28T12:21:32.611Z,4.63
2022-10-28T12:24:01.250Z,4.35
2022-10-28T12:26:38.947Z,4.32
2022-10-28T12:29:14.533Z,4.22
2022-10-28T12:31:54.108Z,4.00
2022-10-28T12:34:32.092Z,4.78
2022-10-28T12:37:07.000Z,4.45
2022-10-28T12:39:39.138Z,4.25
2022-10-28T12:42:13.850Z,3.88
2022-10-28T12:44:42.302Z,3.75
2022-10-28T12:47:18.483Z,4.03
2022-10-28T12:49:59.572Z,4.20
2022-10-28T12:52:36.816Z,3.85
2022-10-28T12:55:19.932Z,4.18
2022-10-28T12:57:55.232Z,4.13
2022-10-28T13:00:27.377Z,4.07
2022-10-28T13:03:02.298Z,3.42
2022-10-28T13:05:37.548Z,3.83
2022-10-28T13:08:31.507Z,3.65
2022-10-28T13:11:37.904Z,3.72
2022-10-28T13:14:11.770Z,3.85
2022-10-28T13:17:02.003Z,3.20
2022-10-28T13:19:39.217Z,4.07
2022-10-28T13:22:53.364Z,3.75
2022-10-28T13:25:55.123Z,4.22
2022-10-28T13:28:26.052Z,3.50
2022-10-28T13:30:56.279Z,4.22
2022-10-28T13:33:26.658Z,4.32
2022-10-28T13:35:55.890Z,4.45
2022-10-28T13:38:27.519Z,4.10
2022-10-28T13:41:29.203Z,4.20
2022-10-28T13:44:25.998Z,4.00
2022-10-28T13:47:26.054Z,4.47
2022-10-28T13:50:16.256Z,4.30
2022-10-28T13:52:45.655Z,4.72
2022-10-28T13:55:23.839Z,4.60
2022-10-28T13:58:00.191Z,4.82
2022-10-28T14:00:37.468Z,3.90
2022-10-28T14:03:07.571Z,4.25
2022-10-28T14:05:54.880Z,4.05
2022-10-28T14:08:28.512Z,4.43
2022-10-28T14:11:03.543Z,3.75
2022-10-28T14:13:35.880Z,4.07
2022-10-28T14:16:23.263Z,4.97
2022-10-28T14:19:01.228Z,4.40
2022-10-28T14:21:48.219Z,3.90
2022-10-28T14:24:32.677Z,4.25
2022-10-28T14:27:29.403Z,4.22
2022-10-28T14:30:18.664Z,4.20
2022-10-28T14:32:58.632Z,4.00
2022-10-28T14:35:33.767Z,4.30
2022-10-28T14:38:44.316Z,3.75
2022-10-28T14:41:38.903Z,5.20
2022-10-28T14:44:19.577Z,4.32
2022-10-28T14:47:01.359Z,4.10
2022-10-28T14:49:32.375Z,4.05
2022-10-28T14:52:08.506Z,4.15
2022-10-28T14:54:41.077Z,5.07
2022-10-28T14:57:09.586Z,4.20
2022-10-28T14:59:39.250Z,4.65
2022-10-28T15:02:14.487Z,4.07
2022-10-28T15:04:44.667Z,4.85
2022-10-28T15:07:15.774Z,3.85
2022-10-28T15:09:45.436Z,4.10
2022-10-28T15:12:17.424Z,3.60
2022-10-28T15:14:48.005Z,4.68
2022-10-28T15:17:20.483Z,3.92
2022-10-28T15:19:51.151Z,4.32
2022-10-28T15:22:21.504Z,4.80
2022-10-28T15:25:02.122Z,4.10
2022-10-28T15:27:31.852Z,4.65
2022-10-28T15:30:00.633Z,4.13
2022-10-28T15:32:33.372Z,5.97
2022-10-28T15:35:16.639Z,6.10
2022-10-28T15:37:44.722Z,5.50
2022-10-28T15:40:21.974Z,6.10
2022-10-28T15:42:57.851Z,6.28
2022-10-28T15:45:27.944Z,5.63
2022-10-28T15:47:58.417Z,6.05
2022-10-28T15:50:32.002Z,4.82
2022-10-28T15:53:31.855Z,5.53
2022-10-28T15:56:18.523Z,5.57
2022-10-28T15:58:48.054Z,5.25
2022-10-28T16:01:31.574Z,5.47
2022-10-28T16:04:01.090Z,5.65
2022-10-28T16:06:31.756Z,4.95
2022-10-28T16:09:06.137Z,5.10
2022-10-28T16:11:39.464Z,5.50
2022-10-28T16:14:31.854Z,5.53
2022-10-28T16:19:43.805Z,5.47
2022-10-28T16:22:14.574Z,5.22
2022-10-28T16:24:42.647Z,4.05
2022-10-28T16:27:17.812Z,3.92
2022-10-28T16:29:45.975Z,4.68
2022-10-28T16:32:15.570Z,4.40
2022-10-28T16:34:45.092Z,5.18
2022-10-28T16:37:21.943Z,5.85
2022-10-28T16:39:50.091Z,5.38
2022-10-28T16:42:19.120Z,4.22
2022-10-28T16:44:47.336Z,4.40
2022-10-28T16:47:17.563Z,4.03
2022-10-28T16:49:52.382Z,5.10
2022-10-28T16:52:25.844Z,4.60
2022-10-28T16:54:54.125Z,4.63
2022-10-28T16:59:55.612Z,4.20
2022-10-28T17:02:27.483Z,3.97
2022-10-28T17:04:57.750Z,3.90
2022-10-28T17:07:26.283Z,5.50
2022-10-28T17:09:54.298Z,4.22
2022-10-28T17:12:24.392Z,3.60
2022-10-28T17:14:52.428Z,5.18
2022-10-28T17:17:20.840Z,4.78
2022-10-28T17:19:48.915Z,4.60
2022-10-28T17:22:18.233Z,4.60
2022-10-28T17:24:46.242Z,5.85
2022-10-28T17:27:14.267Z,5.32
2022-10-28T17:29:42.313Z,4.93
2022-10-28T17:32:10.360Z,5.20
2022-10-28T17:34:38.353Z,5.47
2022-10-28T17:37:07.651Z,5.60
2022-10-28T17:39:37.810Z,5.10
2022-10-28T17:42:06.039Z,5.88
2022-10-28T17:44:34.015Z,5.20
2022-10-28T17:47:02.335Z,5.45
2022-10-28T17:49:30.667Z,5.40
2022-10-28T17:51:58.710Z,5.00
2022-10-28T17:54:26.772Z,5.18
2022-10-28T17:56:56.459Z,5.93
2022-10-28T17:59:24.622Z,5.78
2022-10-28T18:01:52.656Z,5.38
2022-10-28T18:04:25.979Z,5.60
2022-10-28T18:06:54.801Z,6.18
2022-10-28T18:09:23.337Z,5.60
2022-10-28T18:11:51.956Z,5.10
2022-10-28T18:14:21.664Z,4.93
2022-10-28T18:16:51.076Z,5.43
2022-10-28T18:19:19.274Z,6.18
2022-10-28T18:21:47.299Z,4.93
2022-10-28T18:24:15.622Z,5.57
2022-10-28T18:26:43.593Z,5.80
2022-10-28T18:29:13.126Z,5.53
2022-10-28T18:31:44.186Z,6.43
2022-10-28T18:34:12.334Z,7.55
2022-10-28T18:36:40.507Z,6.22
2022-10-28T18:39:08.885Z,7.57
2022-10-28T18:41:41.510Z,6.28
2022-10-28T18:44:12.805Z,7.07
2022-10-28T18:46:42.721Z,6.53
2022-10-28T18:49:10.689Z,6.55
2022-10-28T18:51:38.997Z,6.53
2022-10-28T18:54:07.155Z,7.95
2022-10-28T18:56:35.265Z,6.45
2022-10-28T18:59:04.985Z,6.43
2022-10-28T19:01:33.852Z,7.38
2022-10-28T19:04:05.133Z,7.10
2022-10-28T19:06:34.671Z,6.40
2022-10-28T19:09:04.991Z,6.50
2022-10-28T19:11:34.055Z,6.50
2022-10-28T19:14:03.976Z,8.63
2022-10-28T19:16:34.086Z,7.00
2022-10-28T19:19:05.553Z,7.65
2022-10-28T19:21:33.974Z,9.27
2022-10-28T19:24:02.068Z,7.18
2022-10-28T19:26:31.755Z,6.28
2022-10-28T19:28:59.990Z,5.93
2022-10-28T19:31:30.662Z,7.20
2022-10-28T19:33:58.620Z,8.30
2022-10-28T19:36:29.421Z,7.30
2022-10-28T19:38:58.755Z,8.05
2022-10-28T19:41:28.323Z,6.30
2022-10-28T19:43:58.870Z,7.35
2022-10-28T19:46:28.476Z,6.50
2022-10-28T19:48:58.105Z,7.97
2022-10-28T19:51:29.655Z,6.30
2022-10-28T19:53:59.640Z,8.20
2022-10-28T19:56:28.418Z,7.07
2022-10-28T19:58:57.842Z,7.32
2022-10-28T20:01:28.216Z,7.68
2022-10-28T20:03:57.407Z,6.90
2022-10-28T20:06:28.429Z,6.93
2022-10-28T20:08:56.435Z,6.57
2022-10-28T20:11:26.821Z,8.18
2022-10-28T20:13:56.149Z,5.80
2022-10-28T20:16:25.476Z,6.13
2022-10-28T20:18:54.891Z,5.72
2022-10-28T20:21:24.109Z,6.65
2022-10-28T20:23:55.882Z,6.35
2022-10-28T20:26:25.459Z,7.25
2022-10-28T20:28:53.746Z,6.28
2022-10-28T20:31:23.365Z,6.45
2022-10-28T20:33:53.043Z,5.78
2022-10-28T20:36:24.101Z,6.15
2022-10-28T20:38:57.087Z,6.07
2022-10-28T20:41:26.063Z,6.82
2022-10-28T20:43:55.130Z,6.30
2022-10-28T20:46:24.090Z,5.40
2022-10-28T20:48:53.938Z,5.95
2022-10-28T20:51:22.314Z,6.07
2022-10-28T20:53:50.471Z,5.22
2022-10-28T20:56:22.049Z,6.82
2022-10-28T20:58:50.459Z,6.15
2022-10-28T21:01:20.488Z,5.75
2022-10-28T21:03:49.489Z,7.03
2022-10-28T21:06:18.236Z,6.35
2022-10-28T21:08:46.350Z,5.53
2022-10-28T21:11:16.186Z,6.00
2022-10-28T21:13:50.949Z,6.97
2022-10-28T21:16:19.061Z,5.72
2022-10-28T21:18:47.228Z,7.60
2022-10-28T21:21:15.791Z,6.78
2022-10-28T21:23:43.774Z,6.18
2022-10-28T21:26:13.167Z,5.90
2022-10-28T21:28:42.200Z,5.20
2022-10-28T21:31:13.786Z,8.50
2022-10-28T21:33:43.106Z,5.78
2022-10-28T21:36:13.131Z,6.43
2022-10-28T21:38:41.202Z,6.00
2022-10-28T21:41:12.486Z,6.82
2022-10-28T21:43:42.314Z,5.70
2022-10-28T21:46:12.264Z,6.57
2022-10-28T21:48:40.492Z,6.45
2022-10-28T21:51:13.528Z,7.22
2022-10-28T21:53:43.734Z,5.72
2022-10-28T21:56:16.949Z,6.68
2022-10-28T21:58:46.896Z,6.65
2022-10-28T22:01:18.351Z,6.93
2022-10-28T22:03:46.442Z,6.65
2022-10-28T22:06:15.367Z,6.55
2022-10-28T22:08:43.708Z,5.63
2022-10-28T22:11:14.425Z,6.38
2022-10-28T22:13:43.058Z,6.15
2022-10-28T22:16:13.448Z,5.97
2022-10-28T22:18:42.933Z,6.30
2022-10-28T22:21:13.759Z,6.45
2022-10-28T22:23:42.295Z,5.50
2022-10-28T22:26:12.316Z,5.75
2022-10-28T22:28:40.511Z,5.63
2022-10-28T22:31:10.640Z,6.32
2022-10-28T22:33:39.186Z,6.90
2022-10-28T22:36:10.687Z,5.93
2022-10-28T22:38:39.274Z,8.18
2022-10-28T22:41:11.801Z,6.43
2022-10-28T22:43:40.597Z,8.25
2022-10-28T22:46:09.603Z,6.28
2022-10-28T22:48:37.844Z,7.18
2022-10-28T22:51:09.289Z,7.00
2022-10-28T22:53:38.790Z,7.13
2022-10-28T22:56:07.815Z,6.63
2022-10-28T22:58:36.411Z,6.13
2022-10-28T23:01:09.107Z,6.75
2022-10-28T23:03:39.144Z,6.82
2022-10-28T23:06:09.766Z,5.97
2022-10-28T23:08:38.944Z,7.03
2022-10-28T23:11:07.791Z,6.28
2022-10-28T23:16:06.022Z,6.80
2022-10-28T23:18:34.467Z,6.68
2022-10-28T23:21:08.680Z,7.00
2022-10-28T23:23:36.653Z,6.90
2022-10-28T23:26:05.079Z,6.95
2022-10-28T23:28:33.585Z,6.68
2022-10-28T23:31:02.273Z,8.05
2022-10-28T23:33:30.895Z,7.75
2022-10-28T23:36:00.091Z,8.63
2022-10-28T23:38:30.297Z,8.02
2022-10-28T23:40:59.737Z,7.95
2022-10-28T23:43:28.255Z,7.28
2022-10-28T23:45:56.515Z,6.80
2022-10-28T23:48:25.224Z,6.50
2022-10-28T23:50:53.415Z,6.70
2022-10-28T23:53:22.287Z,6.97
2022-10-28T23:55:52.501Z,8.27
2022-10-28T23:58:22.081Z,8.63
